logo
Rechercher aéroport 
image banner adimage banner adimage banner ad
image banner ad

MRFM - Finca Manu

Situé à Matama, Costa Rica

ICAO - , IATA -

Données fournies par Airmate  

Information générale

Coordonnées: N9°49'39" W83°3'57"
Élévation : 280 feet MSL.
 
Voir autres Aéroports à Limon

Données opérationnelles

Special qualification required
Heure actuelle UTC:
Heure actuelle locale:
Météo à : MRLM - Limon Intl ( 15 km )
METAR: MRLM 171800Z 02009KT CAVOK 31/26 A2982
Voir NOTAMs / SUP AIP / TFR affectant cet aéroport [VIEW]
Fréquences de communication: [VIEW]

Pistes:

Identifiant RWYQFULongueur (ft)Largeur (ft)SurfaceLDA (ft)
1100UNK
2900UNK

Coordonnées de l'aéroport

Adresse: Matama Costa Rica

Vue satellite de MRFM